Time;durP1;ratioP1;P1;durP2;ratioP2;P2;SDS_P1;SDS_P2;PMS_P1;PMS_P2;Temp;Humidity;BMP_temperature;BMP_pressure;BME280_temperature;BME280_humidity;BME280_pressure;Samples;Min_cycle;Max_cycle;Signal;HPM_P1;HPM_P2
2022/01/29 00:01:09;;;;;;;6.45;1.60;;;;;;;;;;5032168;28;20030;-67
2022/01/29 00:03:36;;;;;;;3.90;1.27;;;;;;;;;;5032452;28;20021;-66
2022/01/29 00:06:02;;;;;;;3.70;1.30;;;;;;;;;;5031859;28;20033;-69
2022/01/29 00:08:28;;;;;;;4.13;1.15;;;;;;;;;;5032431;28;20017;-70
2022/01/29 00:11:00;;;;;;;3.85;1.30;;;;;;;;;;5063576;28;20473;-68
2022/01/29 00:13:27;;;;;;;3.83;1.35;;;;;;;;;;5031454;28;20021;-67
2022/01/29 00:15:53;;;;;;;3.85;1.17;;;;;;;;;;5031534;28;20018;-65
2022/01/29 00:18:19;;;;;;;4.13;1.30;;;;;;;;;;5031663;28;20086;-70
2022/01/29 00:20:45;;;;;;;2.40;0.82;;;;;;;;;;5032351;28;20099;-69
2022/01/29 00:23:11;;;;;;;7.40;1.55;;;;;;;;;;5031452;28;20135;-67
2022/01/29 00:25:37;;;;;;;3.55;0.95;;;;;;;;;;5031255;28;20033;-67
2022/01/29 00:28:03;;;;;;;1.95;0.70;;;;;;;;;;5030046;28;20024;-65
2022/01/29 00:30:36;;;;;;;2.90;0.98;;;;;;;;;;5031407;28;20035;-65
2022/01/29 00:33:02;;;;;;;4.10;1.00;;;;;;;;;;5031585;28;20416;-67
2022/01/29 00:35:28;;;;;;;3.17;1.08;;;;;;;;;;5030100;28;20025;-70
2022/01/29 00:37:54;;;;;;;4.30;1.13;;;;;;;;;;5032162;28;20408;-65
2022/01/29 00:40:21;;;;;;;3.97;1.05;;;;;;;;;;5030925;28;20056;-66
2022/01/29 00:42:48;;;;;;;2.70;1.00;;;;;;;;;;5031255;28;20029;-69
2022/01/29 00:45:14;;;;;;;2.03;0.65;;;;;;;;;;5031488;28;20022;-69
2022/01/29 00:47:40;;;;;;;3.40;1.20;;;;;;;;;;5031212;28;20033;-67
2022/01/29 00:50:06;;;;;;;2.53;0.93;;;;;;;;;;5031142;28;20075;-68
2022/01/29 00:52:32;;;;;;;2.97;1.10;;;;;;;;;;5029803;28;20037;-69
2022/01/29 00:54:59;;;;;;;3.35;1.30;;;;;;;;;;5030466;28;20501;-69
2022/01/29 00:57:28;;;;;;;4.00;1.10;;;;;;;;;;5049256;28;20067;-70
2022/01/29 00:59:54;;;;;;;3.45;0.90;;;;;;;;;;5061392;28;20053;-68
2022/01/29 01:02:20;;;;;;;4.18;1.00;;;;;;;;;;5050904;28;20017;-67
2022/01/29 01:04:47;;;;;;;3.80;0.95;;;;;;;;;;5051034;28;20025;-69
2022/01/29 01:07:13;;;;;;;2.13;0.73;;;;;;;;;;5049733;28;20021;-66
2022/01/29 01:09:39;;;;;;;2.97;1.00;;;;;;;;;;5050492;28;20033;-70
2022/01/29 01:12:06;;;;;;;3.13;1.02;;;;;;;;;;5049750;28;20396;-69
2022/01/29 01:14:32;;;;;;;2.38;0.80;;;;;;;;;;5049671;28;20020;-65
2022/01/29 01:16:58;;;;;;;3.25;1.00;;;;;;;;;;5051033;28;20033;-67
2022/01/29 01:19:26;;;;;;;3.88;1.20;;;;;;;;;;5050301;28;20545;-67
2022/01/29 01:21:56;;;;;;;2.97;0.90;;;;;;;;;;5050646;28;20396;-65
2022/01/29 01:24:22;;;;;;;4.28;1.23;;;;;;;;;;5050756;28;20029;-68
2022/01/29 01:26:48;;;;;;;3.08;0.90;;;;;;;;;;5032934;28;20053;-70
2022/01/29 01:29:15;;;;;;;3.45;1.30;;;;;;;;;;5037475;28;20056;-69
2022/01/29 01:31:43;;;;;;;3.50;1.10;;;;;;;;;;5050478;28;20040;-69
2022/01/29 01:34:10;;;;;;;4.28;0.90;;;;;;;;;;5050656;28;20469;-70
2022/01/29 01:36:43;;;;;;;2.92;1.02;;;;;;;;;;5050648;28;20025;-69
2022/01/29 01:39:11;;;;;;;5.47;1.30;;;;;;;;;;5050757;28;20021;-66
2022/01/29 01:41:41;;;;;;;4.47;1.23;;;;;;;;;;5050775;28;20048;-66
2022/01/29 01:44:10;;;;;;;2.88;1.10;;;;;;;;;;5049382;28;20506;-65
2022/01/29 01:46:36;;;;;;;2.80;0.90;;;;;;;;;;5039255;28;20061;-69
2022/01/29 01:49:03;;;;;;;2.42;0.93;;;;;;;;;;5030517;28;20018;-65
2022/01/29 01:51:30;;;;;;;3.65;1.20;;;;;;;;;;5030553;28;20036;-67
2022/01/29 01:53:56;;;;;;;3.40;0.85;;;;;;;;;;5030684;28;20484;-69
2022/01/29 01:56:22;;;;;;;4.50;1.38;;;;;;;;;;5030877;28;20021;-66
2022/01/29 01:58:48;;;;;;;4.07;1.10;;;;;;;;;;5050487;28;20045;-66
2022/01/29 02:01:14;;;;;;;3.38;1.00;;;;;;;;;;5036562;28;20511;-70
2022/01/29 02:03:40;;;;;;;4.05;1.10;;;;;;;;;;5030862;28;20020;-65
2022/01/29 02:06:07;;;;;;;2.78;1.08;;;;;;;;;;5033145;28;20025;-65
2022/01/29 02:08:33;;;;;;;2.83;1.00;;;;;;;;;;5035302;28;20051;-68
2022/01/29 02:11:03;;;;;;;4.93;1.10;;;;;;;;;;5069032;28;20388;-69
2022/01/29 02:13:29;;;;;;;5.20;1.10;;;;;;;;;;5041089;28;20026;-69
2022/01/29 02:15:56;;;;;;;2.97;1.15;;;;;;;;;;5051115;28;20108;-69
2022/01/29 02:18:22;;;;;;;5.32;1.25;;;;;;;;;;5035627;28;20029;-68
2022/01/29 02:20:49;;;;;;;4.38;1.10;;;;;;;;;;5033335;28;20095;-67
2022/01/29 02:23:17;;;;;;;3.97;1.20;;;;;;;;;;5033980;28;20546;-68
2022/01/29 02:25:44;;;;;;;3.65;1.05;;;;;;;;;;5033863;28;20057;-67
2022/01/29 02:28:12;;;;;;;4.80;1.00;;;;;;;;;;5033772;28;20049;-66
2022/01/29 02:30:39;;;;;;;5.05;1.63;;;;;;;;;;5035697;28;20034;-68
2022/01/29 02:33:10;;;;;;;5.43;1.30;;;;;;;;;;5032659;28;20091;-70
2022/01/29 02:35:40;;;;;;;3.70;0.90;;;;;;;;;;5033907;28;20018;-68
2022/01/29 02:38:07;;;;;;;9.68;1.10;;;;;;;;;;5032357;28;20029;-65
2022/01/29 02:40:36;;;;;;;5.40;1.25;;;;;;;;;;5033584;28;20476;-70
2022/01/29 02:43:12;;;;;;;5.25;1.20;;;;;;;;;;5033675;28;20025;-65
2022/01/29 02:45:40;;;;;;;5.00;1.40;;;;;;;;;;5033904;28;20046;-66
2022/01/29 02:48:06;;;;;;;4.90;1.20;;;;;;;;;;5033679;28;20021;-67
2022/01/29 02:50:33;;;;;;;3.80;1.27;;;;;;;;;;5033691;28;20033;-69
2022/01/29 02:52:59;;;;;;;6.85;1.48;;;;;;;;;;5033661;28;20021;-66
2022/01/29 02:55:25;;;;;;;2.67;1.08;;;;;;;;;;5033654;28;20500;-67
2022/01/29 02:57:51;;;;;;;3.30;1.10;;;;;;;;;;5057712;28;20388;-69
2022/01/29 03:00:17;;;;;;;5.88;1.33;;;;;;;;;;5073310;28;20017;-66
2022/01/29 03:02:43;;;;;;;5.75;1.15;;;;;;;;;;5073442;28;20039;-66
2022/01/29 03:05:09;;;;;;;5.90;1.20;;;;;;;;;;5073302;28;20046;-66
2022/01/29 03:07:37;;;;;;;3.90;1.00;;;;;;;;;;5073363;28;20031;-65
2022/01/29 03:10:03;;;;;;;3.55;1.00;;;;;;;;;;5073171;28;20017;-65
2022/01/29 03:12:29;;;;;;;8.57;1.27;;;;;;;;;;5073065;28;20111;-69
2022/01/29 03:14:55;;;;;;;4.03;1.40;;;;;;;;;;5071593;28;20050;-64
2022/01/29 03:17:22;;;;;;;3.35;1.25;;;;;;;;;;5071921;28;20032;-65
2022/01/29 03:19:48;;;;;;;3.17;1.02;;;;;;;;;;5073168;28;20025;-65
2022/01/29 03:22:14;;;;;;;3.50;1.00;;;;;;;;;;5073047;28;20044;-65
2022/01/29 03:24:40;;;;;;;3.75;1.10;;;;;;;;;;5073155;28;20024;-65
2022/01/29 03:27:06;;;;;;;4.32;1.40;;;;;;;;;;5072722;28;20078;-68
2022/01/29 03:29:32;;;;;;;2.83;0.98;;;;;;;;;;5072826;28;20051;-65
2022/01/29 03:31:58;;;;;;;3.88;1.10;;;;;;;;;;5073042;28;20047;-65
2022/01/29 03:34:24;;;;;;;4.63;1.30;;;;;;;;;;5072933;28;20021;-65
2022/01/29 03:36:50;;;;;;;3.33;1.00;;;;;;;;;;5071556;28;20032;-64
2022/01/29 03:39:16;;;;;;;3.08;1.00;;;;;;;;;;5071304;28;20475;-67
2022/01/29 03:41:42;;;;;;;3.55;0.90;;;;;;;;;;5072610;28;20036;-63
2022/01/29 03:44:08;;;;;;;3.08;1.00;;;;;;;;;;5071160;28;20020;-65
2022/01/29 03:46:34;;;;;;;3.25;1.15;;;;;;;;;;5072455;28;20043;-63
2022/01/29 03:49:00;;;;;;;3.13;0.90;;;;;;;;;;5072392;28;20691;-65
2022/01/29 03:51:26;;;;;;;3.10;0.90;;;;;;;;;;5072326;28;20068;-65
2022/01/29 03:53:53;;;;;;;4.28;0.88;;;;;;;;;;5072439;28;20024;-64
2022/01/29 03:56:19;;;;;;;3.28;1.00;;;;;;;;;;5072083;28;20028;-65
2022/01/29 03:58:45;;;;;;;3.90;1.30;;;;;;;;;;5052792;28;20545;-66
2022/01/29 04:01:11;;;;;;;2.58;1.08;;;;;;;;;;5051305;28;20083;-64
2022/01/29 04:03:37;;;;;;;3.53;1.00;;;;;;;;;;5051326;28;20045;-64
2022/01/29 04:06:03;;;;;;;4.82;1.30;;;;;;;;;;5052648;28;20025;-65
2022/01/29 04:08:32;;;;;;;2.83;0.95;;;;;;;;;;5052542;28;20017;-64
2022/01/29 04:10:59;;;;;;;3.60;1.02;;;;;;;;;;5052289;28;20048;-65
2022/01/29 04:13:27;;;;;;;4.13;0.98;;;;;;;;;;5051112;28;20074;-64
2022/01/29 04:15:53;;;;;;;3.28;1.10;;;;;;;;;;5052177;28;20013;-64
2022/01/29 04:18:19;;;;;;;3.53;1.10;;;;;;;;;;5052195;28;20051;-66
2022/01/29 04:20:45;;;;;;;3.70;1.13;;;;;;;;;;5052325;28;20032;-63
2022/01/29 04:23:11;;;;;;;3.42;0.90;;;;;;;;;;5052063;28;20076;-67
2022/01/29 04:25:37;;;;;;;5.10;1.02;;;;;;;;;;5052122;28;20480;-64
2022/01/29 04:28:04;;;;;;;3.10;1.17;;;;;;;;;;5051917;28;20074;-65
2022/01/29 04:30:33;;;;;;;3.15;0.90;;;;;;;;;;5046111;28;20056;-64
2022/01/29 04:33:03;;;;;;;3.70;1.23;;;;;;;;;;5032630;28;20168;-65
2022/01/29 04:35:29;;;;;;;3.17;1.00;;;;;;;;;;5032359;28;20465;-64
2022/01/29 04:37:56;;;;;;;3.42;1.10;;;;;;;;;;5032222;28;20174;-65
2022/01/29 04:40:22;;;;;;;4.35;1.42;;;;;;;;;;5030885;28;20417;-65
2022/01/29 04:42:48;;;;;;;2.70;0.93;;;;;;;;;;5032327;28;20030;-66
2022/01/29 04:45:14;;;;;;;5.07;1.00;;;;;;;;;;5032352;28;20021;-66
2022/01/29 04:47:40;;;;;;;3.22;1.10;;;;;;;;;;5032200;28;20025;-65
2022/01/29 04:50:07;;;;;;;3.58;1.13;;;;;;;;;;5030766;28;20022;-64
2022/01/29 04:52:33;;;;;;;3.25;1.00;;;;;;;;;;5031892;28;20056;-66
2022/01/29 04:54:59;;;;;;;3.50;1.00;;;;;;;;;;5032157;28;20105;-66
2022/01/29 04:57:25;;;;;;;3.72;1.08;;;;;;;;;;5040968;28;20025;-67
2022/01/29 04:59:51;;;;;;;2.22;0.77;;;;;;;;;;5051545;28;20473;-63
2022/01/29 05:02:17;;;;;;;2.65;1.02;;;;;;;;;;5051382;28;20025;-63
2022/01/29 05:04:43;;;;;;;2.58;1.20;;;;;;;;;;5051332;28;20071;-64
2022/01/29 05:07:09;;;;;;;2.83;0.93;;;;;;;;;;5051094;28;20031;-63
2022/01/29 05:09:36;;;;;;;2.47;0.88;;;;;;;;;;5051874;28;20059;-65
2022/01/29 05:12:02;;;;;;;3.05;1.08;;;;;;;;;;5051782;28;20033;-63
2022/01/29 05:27:53;;;;;;;4.50;1.30;;;;;;;;;;5051361;28;20036;-65
2022/01/29 05:30:19;;;;;;;3.05;1.10;;;;;;;;;;5050979;28;20024;-66
2022/01/29 05:32:45;;;;;;;3.65;1.10;;;;;;;;;;5049815;28;20119;-65
2022/01/29 05:35:11;;;;;;;4.15;1.27;;;;;;;;;;5051267;28;20068;-65
2022/01/29 05:37:38;;;;;;;3.38;1.05;;;;;;;;;;5051299;28;20067;-64
2022/01/29 05:40:04;;;;;;;3.28;1.08;;;;;;;;;;5052050;28;20086;-67
2022/01/29 05:42:30;;;;;;;5.18;1.33;;;;;;;;;;5053531;28;20095;-66
2022/01/29 05:44:56;;;;;;;3.13;0.98;;;;;;;;;;5053703;28;20021;-67
2022/01/29 05:47:22;;;;;;;4.30;1.50;;;;;;;;;;5054951;28;20027;-65
2022/01/29 05:49:48;;;;;;;3.08;0.93;;;;;;;;;;5055154;28;20072;-66
2022/01/29 05:52:14;;;;;;;3.35;1.17;;;;;;;;;;5055356;28;20063;-65
2022/01/29 05:54:40;;;;;;;5.80;1.30;;;;;;;;;;5055021;28;20028;-67
2022/01/29 05:57:06;;;;;;;2.35;0.98;;;;;;;;;;5054594;28;20036;-65
2022/01/29 05:59:36;;;;;;;2.50;1.00;;;;;;;;;;5054837;28;20016;-70
2022/01/29 06:02:02;;;;;;;4.78;1.30;;;;;;;;;;5054989;28;20021;-63
2022/01/29 06:04:28;;;;;;;5.13;1.10;;;;;;;;;;5054711;28;20114;-69
2022/01/29 06:06:54;;;;;;;3.60;1.20;;;;;;;;;;5055055;28;20021;-66
2022/01/29 06:09:20;;;;;;;4.22;1.10;;;;;;;;;;5054451;28;20021;-69
2022/01/29 06:11:46;;;;;;;5.80;1.27;;;;;;;;;;5054304;28;20033;-68
2022/01/29 06:14:12;;;;;;;4.13;1.25;;;;;;;;;;5054570;28;20048;-69
2022/01/29 06:16:38;;;;;;;2.63;1.05;;;;;;;;;;5054604;28;20158;-67
2022/01/29 06:19:05;;;;;;;3.55;1.20;;;;;;;;;;5054450;28;20126;-66
2022/01/29 06:21:31;;;;;;;3.22;1.10;;;;;;;;;;5054190;28;20112;-64
2022/01/29 06:23:58;;;;;;;2.53;1.05;;;;;;;;;;5054359;28;20021;-65
2022/01/29 06:26:24;;;;;;;2.40;1.08;;;;;;;;;;5054271;28;20025;-64
2022/01/29 06:28:50;;;;;;;2.53;0.95;;;;;;;;;;5054240;28;20021;-64
2022/01/29 06:31:16;;;;;;;3.03;1.17;;;;;;;;;;5045881;28;20491;-69
2022/01/29 06:33:42;;;;;;;4.35;1.25;;;;;;;;;;5066107;28;20381;-63
2022/01/29 06:36:09;;;;;;;3.40;1.10;;;;;;;;;;5033757;28;20094;-65
2022/01/29 06:38:35;;;;;;;5.47;1.25;;;;;;;;;;5033739;28;20031;-64
2022/01/29 06:41:01;;;;;;;3.22;1.10;;;;;;;;;;5033897;28;20021;-65
2022/01/29 06:43:28;;;;;;;6.82;1.13;;;;;;;;;;5066117;28;20473;-67
2022/01/29 06:45:55;;;;;;;4.57;1.40;;;;;;;;;;5034007;28;20104;-67
2022/01/29 06:48:21;;;;;;;5.47;1.58;;;;;;;;;;5032979;28;20572;-68
2022/01/29 06:50:47;;;;;;;3.17;1.20;;;;;;;;;;5033417;28;20052;-67
2022/01/29 06:53:13;;;;;;;3.55;1.30;;;;;;;;;;5048731;28;20120;-66
2022/01/29 06:55:39;;;;;;;4.15;1.25;;;;;;;;;;5033353;28;20017;-66
2022/01/29 06:58:05;;;;;;;4.22;1.40;;;;;;;;;;5062602;28;20021;-68
2022/01/29 07:00:31;;;;;;;5.35;1.63;;;;;;;;;;5073711;28;20021;-67
2022/01/29 07:02:57;;;;;;;4.30;1.33;;;;;;;;;;5073799;28;20155;-67
2022/01/29 07:05:23;;;;;;;3.67;1.20;;;;;;;;;;5072069;28;20024;-67
2022/01/29 07:07:50;;;;;;;6.75;2.10;;;;;;;;;;5073117;28;20035;-65
2022/01/29 07:10:17;;;;;;;4.10;1.30;;;;;;;;;;5073339;28;20027;-65
2022/01/29 07:12:43;;;;;;;4.28;1.33;;;;;;;;;;5073387;28;20339;-68
2022/01/29 07:15:10;;;;;;;5.22;1.58;;;;;;;;;;5073120;28;20017;-65
2022/01/29 07:17:36;;;;;;;5.93;1.95;;;;;;;;;;5071778;28;20020;-65
2022/01/29 07:20:03;;;;;;;3.70;1.45;;;;;;;;;;5073272;28;20021;-63
2022/01/29 07:22:29;;;;;;;4.38;1.45;;;;;;;;;;5072966;28;20132;-67
2022/01/29 07:24:55;;;;;;;3.65;1.50;;;;;;;;;;5072942;28;20025;-67
2022/01/29 07:27:22;;;;;;;4.40;1.50;;;;;;;;;;5072857;28;20379;-64
2022/01/29 07:29:48;;;;;;;4.50;1.30;;;;;;;;;;5072719;28;20029;-65
2022/01/29 07:32:14;;;;;;;4.93;1.20;;;;;;;;;;5072545;28;20063;-66
2022/01/29 07:34:40;;;;;;;4.88;1.38;;;;;;;;;;5056425;28;20128;-66
2022/01/29 07:37:06;;;;;;;3.60;1.50;;;;;;;;;;5052746;28;20048;-64
2022/01/29 07:39:33;;;;;;;4.72;1.40;;;;;;;;;;5052998;28;20074;-64
2022/01/29 07:41:59;;;;;;;6.20;1.52;;;;;;;;;;5051851;28;20056;-65
2022/01/29 07:44:25;;;;;;;5.50;1.60;;;;;;;;;;5051490;28;20017;-64
2022/01/29 07:46:52;;;;;;;3.88;1.33;;;;;;;;;;5051666;28;20025;-66
2022/01/29 07:49:18;;;;;;;4.88;1.38;;;;;;;;;;5051498;28;20019;-65
2022/01/29 07:51:44;;;;;;;4.20;1.40;;;;;;;;;;5052998;28;20061;-63
2022/01/29 07:54:10;;;;;;;4.93;1.52;;;;;;;;;;5053029;28;20040;-64
2022/01/29 07:56:36;;;;;;;4.90;1.40;;;;;;;;;;5050429;28;20043;-64
2022/01/29 07:59:03;;;;;;;4.97;1.48;;;;;;;;;;5032934;28;20041;-64
2022/01/29 08:01:29;;;;;;;4.25;1.50;;;;;;;;;;5032892;28;20028;-67
2022/01/29 08:03:55;;;;;;;5.38;1.75;;;;;;;;;;5032358;28;20100;-64
2022/01/29 08:06:22;;;;;;;5.28;1.90;;;;;;;;;;5032388;28;20029;-65
2022/01/29 08:08:48;;;;;;;5.05;1.45;;;;;;;;;;5032476;28;20036;-65
2022/01/29 08:11:15;;;;;;;5.63;1.80;;;;;;;;;;5031247;28;20052;-65
2022/01/29 08:13:43;;;;;;;4.95;1.60;;;;;;;;;;5032585;28;20053;-65
2022/01/29 08:16:09;;;;;;;4.20;1.60;;;;;;;;;;5032651;28;20432;-64
2022/01/29 08:18:35;;;;;;;7.45;1.90;;;;;;;;;;5032357;28;20014;-66
2022/01/29 08:21:01;;;;;;;5.32;1.67;;;;;;;;;;5031965;28;20029;-65
2022/01/29 08:23:27;;;;;;;5.65;1.60;;;;;;;;;;5032082;28;20041;-64
2022/01/29 08:25:53;;;;;;;9.23;1.67;;;;;;;;;;5030583;28;20045;-65
2022/01/29 08:28:19;;;;;;;4.18;1.50;;;;;;;;;;5030568;28;20104;-67
2022/01/29 08:30:45;;;;;;;7.20;1.80;;;;;;;;;;5031669;28;20021;-63
2022/01/29 08:33:17;;;;;;;4.75;1.40;;;;;;;;;;5031578;28;20029;-64
2022/01/29 08:35:43;;;;;;;5.22;1.45;;;;;;;;;;5031889;28;20603;-64
2022/01/29 08:38:09;;;;;;;5.05;1.60;;;;;;;;;;5031771;28;20052;-64
2022/01/29 08:40:35;;;;;;;5.72;1.10;;;;;;;;;;5031765;28;20028;-65
2022/01/29 08:43:01;;;;;;;4.38;1.38;;;;;;;;;;5031801;28;20075;-66
2022/01/29 08:45:27;;;;;;;6.38;1.67;;;;;;;;;;5031660;28;20025;-66
2022/01/29 08:47:54;;;;;;;5.18;1.48;;;;;;;;;;5030936;28;20033;-69
2022/01/29 08:50:20;;;;;;;4.32;1.63;;;;;;;;;;5030145;28;20705;-68
2022/01/29 08:52:46;;;;;;;8.82;1.70;;;;;;;;;;5031519;28;20112;-66
2022/01/29 08:55:13;;;;;;;12.75;1.27;;;;;;;;;;5031428;28;20473;-67
2022/01/29 08:57:39;;;;;;;4.45;1.42;;;;;;;;;;5042117;28;20103;-67
2022/01/29 09:00:06;;;;;;;6.20;1.25;;;;;;;;;;5049696;28;20128;-65
2022/01/29 09:02:32;;;;;;;3.75;1.20;;;;;;;;;;5050922;28;20025;-65
2022/01/29 09:04:59;;;;;;;6.85;1.55;;;;;;;;;;5050840;28;20104;-65
2022/01/29 09:07:26;;;;;;;4.78;1.38;;;;;;;;;;5050783;28;20391;-67
2022/01/29 09:09:53;;;;;;;4.53;1.38;;;;;;;;;;5049224;28;20025;-68
2022/01/29 09:12:19;;;;;;;7.80;1.98;;;;;;;;;;5053142;28;20075;-68
2022/01/29 09:14:45;;;;;;;7.38;1.70;;;;;;;;;;5045877;28;20116;-65
2022/01/29 09:17:11;;;;;;;4.05;1.23;;;;;;;;;;5052589;28;20087;-65
2022/01/29 09:19:37;;;;;;;7.10;1.60;;;;;;;;;;5055227;28;20528;-66
2022/01/29 09:22:03;;;;;;;5.45;1.35;;;;;;;;;;5055570;28;20041;-66
2022/01/29 09:24:29;;;;;;;12.65;1.90;;;;;;;;;;5058287;28;20021;-64
2022/01/29 09:26:56;;;;;;;9.68;1.75;;;;;;;;;;5059730;28;20031;-65
2022/01/29 09:29:22;;;;;;;6.93;1.98;;;;;;;;;;5050070;28;20017;-68
2022/01/29 09:31:48;;;;;;;6.20;1.70;;;;;;;;;;5034952;28;20034;-65
2022/01/29 09:34:14;;;;;;;7.97;1.50;;;;;;;;;;5035042;28;20100;-67
2022/01/29 09:36:40;;;;;;;9.98;1.83;;;;;;;;;;5035096;28;20079;-67
2022/01/29 09:39:06;;;;;;;4.68;1.70;;;;;;;;;;5067105;28;20458;-70
2022/01/29 09:41:32;;;;;;;9.55;1.65;;;;;;;;;;5053442;28;20029;-64
2022/01/29 09:43:59;;;;;;;9.85;1.80;;;;;;;;;;5053391;28;20071;-65
2022/01/29 09:46:30;;;;;;;5.47;1.60;;;;;;;;;;5057751;28;20029;-64
2022/01/29 09:48:56;;;;;;;7.40;1.60;;;;;;;;;;5055039;28;20013;-65
2022/01/29 09:51:22;;;;;;;5.68;1.58;;;;;;;;;;5053291;28;20120;-65
2022/01/29 09:53:48;;;;;;;7.43;1.50;;;;;;;;;;5054268;28;20037;-63
2022/01/29 09:56:16;;;;;;;5.68;1.58;;;;;;;;;;5054670;28;20032;-65
2022/01/29 09:58:43;;;;;;;9.13;1.88;;;;;;;;;;5040702;28;20381;-66
2022/01/29 10:01:09;;;;;;;4.63;1.38;;;;;;;;;;5054372;28;20025;-66
2022/01/29 10:03:35;;;;;;;5.05;1.48;;;;;;;;;;5054272;28;20468;-67
2022/01/29 10:06:02;;;;;;;5.75;1.25;;;;;;;;;;5054053;28;20033;-65
2022/01/29 10:08:28;;;;;;;5.90;1.40;;;;;;;;;;5053452;28;20021;-66
2022/01/29 10:10:56;;;;;;;4.90;1.02;;;;;;;;;;5053236;28;20415;-67
2022/01/29 10:13:30;;;;;;;6.30;1.60;;;;;;;;;;5053088;28;20036;-66
2022/01/29 10:16:12;;;;;;;5.10;1.50;;;;;;;;;;5054593;28;20029;-66
2022/01/29 10:18:39;;;;;;;6.07;1.67;;;;;;;;;;5054471;28;20025;-64
2022/01/29 10:21:14;;;;;;;3.70;1.17;;;;;;;;;;5053842;28;20044;-67
2022/01/29 10:23:41;;;;;;;6.18;1.55;;;;;;;;;;5052898;28;20029;-66
2022/01/29 10:26:09;;;;;;;8.70;1.48;;;;;;;;;;5053540;28;20021;-65
2022/01/29 10:28:35;;;;;;;4.68;1.52;;;;;;;;;;5053870;28;20033;-67
2022/01/29 10:31:03;;;;;;;4.80;1.50;;;;;;;;;;5053981;28;20836;-67
2022/01/29 10:33:37;;;;;;;3.78;1.52;;;;;;;;;;5053403;28;20029;-66
2022/01/29 10:36:03;;;;;;;5.65;1.40;;;;;;;;;;5053079;28;20021;-63
2022/01/29 10:38:45;;;;;;;6.03;1.70;;;;;;;;;;5053284;28;20021;-64
2022/01/29 10:41:23;;;;;;;5.15;1.52;;;;;;;;;;5050623;28;20071;-63
2022/01/29 10:43:55;;;;;;;5.55;1.73;;;;;;;;;;5053194;28;20033;-65
2022/01/29 10:46:31;;;;;;;5.40;1.40;;;;;;;;;;5052199;28;20116;-67
2022/01/29 10:48:58;;;;;;;5.75;1.30;;;;;;;;;;5050635;28;20021;-68
2022/01/29 10:51:25;;;;;;;5.55;1.73;;;;;;;;;;5053594;28;20091;-67
2022/01/29 10:53:53;;;;;;;4.43;1.38;;;;;;;;;;5051863;28;20032;-65
2022/01/29 10:56:19;;;;;;;8.05;1.65;;;;;;;;;;5042605;28;20017;-64
2022/01/29 10:58:50;;;;;;;4.65;1.40;;;;;;;;;;5041574;28;20025;-66
2022/01/29 11:01:19;;;;;;;6.97;1.60;;;;;;;;;;5053206;28;20013;-64
2022/01/29 11:03:46;;;;;;;6.90;1.42;;;;;;;;;;5053557;28;20033;-66
2022/01/29 11:06:15;;;;;;;114.72;4.53;;;;;;;;;;5044188;28;20116;-64
2022/01/29 11:08:44;;;;;;;22.20;2.55;;;;;;;;;;5052786;28;20468;-68
2022/01/29 11:11:11;;;;;;;14.32;1.88;;;;;;;;;;5052395;28;20112;-66
2022/01/29 11:13:37;;;;;;;16.13;2.58;;;;;;;;;;5051332;28;20025;-69
2022/01/29 11:16:04;;;;;;;5.97;1.40;;;;;;;;;;5050787;28;20025;-64
2022/01/29 11:18:32;;;;;;;10.27;1.70;;;;;;;;;;5052003;28;20025;-67
2022/01/29 11:20:58;;;;;;;7.15;1.63;;;;;;;;;;5052534;28;20025;-67
2022/01/29 11:23:25;;;;;;;7.50;1.80;;;;;;;;;;5052475;28;20137;-68
2022/01/29 11:25:53;;;;;;;23.30;2.17;;;;;;;;;;5051269;28;20029;-69
2022/01/29 11:28:21;;;;;;;18.10;3.33;;;;;;;;;;5052368;28;20121;-67
2022/01/29 11:30:48;;;;;;;17.90;2.72;;;;;;;;;;5052444;28;20416;-66
2022/01/29 11:33:14;;;;;;;14.32;2.08;;;;;;;;;;5052827;28;20460;-68
2022/01/29 11:36:07;;;;;;;17.08;2.78;;;;;;;;;;5051831;28;20025;-67
2022/01/29 11:38:34;;;;;;;11.02;2.10;;;;;;;;;;5050769;28;20098;-64
2022/01/29 11:41:04;;;;;;;33.63;2.67;;;;;;;;;;5052839;28;20017;-65
2022/01/29 11:43:30;;;;;;;13.10;2.38;;;;;;;;;;5052961;28;20388;-68
2022/01/29 11:45:59;;;;;;;19.30;2.85;;;;;;;;;;5052485;28;20017;-69
2022/01/29 11:48:37;;;;;;;22.80;3.00;;;;;;;;;;5051348;28;20543;-66
2022/01/29 11:51:10;;;;;;;24.80;3.22;;;;;;;;;;5049181;28;20036;-71
2022/01/29 11:53:55;;;;;;;14.63;2.42;;;;;;;;;;5049398;28;20055;-69
2022/01/29 11:56:30;;;;;;;14.65;2.20;;;;;;;;;;5051290;28;20029;-70
2022/01/29 11:59:15;;;;;;;16.33;2.85;;;;;;;;;;5051976;28;20090;-72
2022/01/29 12:01:41;;;;;;;7.03;1.92;;;;;;;;;;5051766;28;20021;-68
2022/01/29 12:04:07;;;;;;;11.43;2.00;;;;;;;;;;5050633;28;20117;-70
2022/01/29 12:06:38;;;;;;;10.18;2.17;;;;;;;;;;5052129;28;20071;-71
2022/01/29 12:09:07;;;;;;;10.60;2.10;;;;;;;;;;5052061;28;20017;-69
2022/01/29 12:11:44;;;;;;;12.70;2.58;;;;;;;;;;5052041;28;20029;-64
2022/01/29 12:14:13;;;;;;;8.63;2.08;;;;;;;;;;5051934;28;20021;-63
2022/01/29 12:16:47;;;;;;;9.52;2.22;;;;;;;;;;5052079;28;20025;-64
2022/01/29 12:19:31;;;;;;;10.45;2.30;;;;;;;;;;5051869;28;20055;-71
2022/01/29 12:21:58;;;;;;;8.20;2.15;;;;;;;;;;5051659;28;20043;-65
2022/01/29 12:24:24;;;;;;;8.63;1.80;;;;;;;;;;5051677;28;20028;-68
2022/01/29 12:26:54;;;;;;;9.52;2.30;;;;;;;;;;5051801;28;20017;-63
2022/01/29 12:29:22;;;;;;;6.80;2.13;;;;;;;;;;5051759;28;20025;-64
2022/01/29 12:31:49;;;;;;;9.35;1.90;;;;;;;;;;5051640;28;20064;-65
2022/01/29 12:34:15;;;;;;;6.72;1.65;;;;;;;;;;5051608;28;20021;-70
2022/01/29 12:36:41;;;;;;;7.72;1.90;;;;;;;;;;5051656;28;20057;-67
2022/01/29 12:39:09;;;;;;;12.25;2.22;;;;;;;;;;5050106;28;20066;-69
2022/01/29 12:41:39;;;;;;;8.43;1.65;;;;;;;;;;5051875;28;20036;-71
2022/01/29 12:44:08;;;;;;;6.75;2.10;;;;;;;;;;5051505;28;20021;-65
2022/01/29 12:46:35;;;;;;;9.38;2.00;;;;;;;;;;5051668;28;20106;-66
2022/01/29 12:49:07;;;;;;;6.55;2.15;;;;;;;;;;5051376;28;20021;-69
2022/01/29 12:51:37;;;;;;;6.68;2.05;;;;;;;;;;5051316;28;20047;-74
2022/01/29 12:54:05;;;;;;;7.93;1.95;;;;;;;;;;5051287;28;20036;-68
2022/01/29 12:56:31;;;;;;;7.55;2.08;;;;;;;;;;5049554;28;20028;-65
2022/01/29 12:58:58;;;;;;;7.10;2.22;;;;;;;;;;5031328;28;20067;-64
2022/01/29 13:01:25;;;;;;;8.50;2.20;;;;;;;;;;5031469;28;20503;-65
2022/01/29 13:03:51;;;;;;;6.15;1.80;;;;;;;;;;5031418;28;20029;-70
2022/01/29 13:06:17;;;;;;;8.98;2.15;;;;;;;;;;5031067;28;20104;-66
2022/01/29 13:08:44;;;;;;;7.60;1.92;;;;;;;;;;5031129;28;20032;-68
2022/01/29 13:11:40;;;;;;;6.82;1.90;;;;;;;;;;5031186;28;20032;-67
2022/01/29 13:14:12;;;;;;;8.48;2.15;;;;;;;;;;5030528;28;20045;-66
2022/01/29 13:16:39;;;;;;;;;;;;;;;;;;5031310;28;20025;-63
2022/01/29 13:19:05;;;;;;;7.07;2.42;;;;;;;;;;5031230;28;20360;-66
2022/01/29 13:21:33;;;;;;;8.18;2.03;;;;;;;;;;5031292;28;20041;-64
2022/01/29 13:24:00;;;;;;;7.18;2.63;;;;;;;;;;5031257;28;20030;-67
2022/01/29 13:26:30;;;;;;;7.35;2.65;;;;;;;;;;5031085;28;20029;-63
2022/01/29 13:29:02;;;;;;;7.00;2.13;;;;;;;;;;5031081;28;20025;-65
2022/01/29 13:31:29;;;;;;;;;;;;;;;;;;5030276;28;20056;-70
2022/01/29 13:33:56;;;;;;;8.68;2.20;;;;;;;;;;5031113;28;20379;-67
2022/01/29 13:36:35;;;;;;;7.70;1.88;;;;;;;;;;5031016;28;20025;-66
2022/01/29 13:39:07;;;;;;;4.15;1.42;;;;;;;;;;5030878;28;20103;-64
2022/01/29 13:41:33;;;;;;;6.85;1.60;;;;;;;;;;5030893;28;20496;-69
2022/01/29 13:44:08;;;;;;;5.70;1.90;;;;;;;;;;5031058;28;20021;-63
2022/01/29 13:46:34;;;;;;;7.97;2.30;;;;;;;;;;5031084;28;20036;-65
2022/01/29 13:49:02;;;;;;;6.93;2.28;;;;;;;;;;5029658;28;20029;-64
2022/01/29 13:51:29;;;;;;;6.55;2.05;;;;;;;;;;5029663;28;20433;-64
2022/01/29 13:53:57;;;;;;;5.75;1.95;;;;;;;;;;5030793;28;20021;-65
2022/01/29 13:56:24;;;;;;;5.60;1.70;;;;;;;;;;5031562;28;20018;-70
2022/01/29 13:58:58;;;;;;;6.68;2.25;;;;;;;;;;5050848;28;20032;-64
2022/01/29 14:01:42;;;;;;;8.82;2.35;;;;;;;;;;5052407;28;20028;-64
2022/01/29 14:04:40;;;;;;;7.65;2.13;;;;;;;;;;5054349;28;20362;-65
2022/01/29 14:07:12;;;;;;;6.15;1.90;;;;;;;;;;5054289;28;20029;-67
2022/01/29 14:09:47;;;;;;;5.55;2.08;;;;;;;;;;5054282;28;20020;-65
2022/01/29 14:12:13;;;;;;;7.32;1.85;;;;;;;;;;5054033;28;20039;-68
2022/01/29 14:14:40;;;;;;;6.60;2.22;;;;;;;;;;5054137;28;20044;-64
2022/01/29 14:17:11;;;;;;;7.57;2.28;;;;;;;;;;5049796;28;20032;-66
2022/01/29 14:19:37;;;;;;;6.78;2.35;;;;;;;;;;5034315;28;20018;-64
2022/01/29 14:22:05;;;;;;;11.05;2.60;;;;;;;;;;5034044;28;20053;-63
2022/01/29 14:24:31;;;;;;;7.25;2.38;;;;;;;;;;5034268;28;20036;-72
2022/01/29 14:26:58;;;;;;;6.60;1.98;;;;;;;;;;5032823;28;20128;-63
2022/01/29 14:29:25;;;;;;;6.60;2.00;;;;;;;;;;5034125;28;20029;-64
2022/01/29 14:31:51;;;;;;;7.25;2.15;;;;;;;;;;5034132;28;20129;-66
2022/01/29 14:34:17;;;;;;;8.15;2.30;;;;;;;;;;5032412;28;20354;-70
2022/01/29 14:36:44;;;;;;;5.70;2.15;;;;;;;;;;5033816;28;20024;-68
2022/01/29 14:39:11;;;;;;;6.03;1.90;;;;;;;;;;5033824;28;20056;-65
2022/01/29 14:41:38;;;;;;;6.57;2.05;;;;;;;;;;5033902;28;20018;-69
2022/01/29 14:44:06;;;;;;;6.93;2.25;;;;;;;;;;5033690;28;20377;-65
2022/01/29 14:46:32;;;;;;;7.95;2.30;;;;;;;;;;5033747;28;20037;-62
2022/01/29 14:48:59;;;;;;;7.47;2.40;;;;;;;;;;5033555;28;20075;-70
2022/01/29 14:51:28;;;;;;;5.68;1.85;;;;;;;;;;5033331;28;20040;-69
2022/01/29 14:53:54;;;;;;;7.95;2.47;;;;;;;;;;5033391;28;20060;-65
2022/01/29 14:56:20;;;;;;;6.28;2.22;;;;;;;;;;5032190;28;20021;-64
2022/01/29 14:58:46;;;;;;;5.55;2.00;;;;;;;;;;5053255;28;20484;-66